ADDS METAR Data INFO
IDs: Format: Raw Decoded Include TAF

Data at: 1519 UTC 23 Oct 2017

KD60 231515Z AUTO 30016G24KT 10SM FEW080 05/02 A3012 RMK AO2
KD60 231455Z AUTO 29015KT 10SM CLR 04/02 A3011 RMK AO2
KD60 231435Z AUTO 29017KT 10SM FEW080 SCT095 04/02 A3010 RMK AO2
KD60 231415Z AUTO 29015KT 10SM BKN080 OVC090 04/02 A3009 RMK AO2
KD60 231355Z AUTO 29011G18KT 10SM SCT080 OVC090 03/02 A3008 RMK AO2
KD60 231335Z AUTO 28013KT 10SM OVC085 03/02 A3007 RMK AO2
KD60 231315Z AUTO 29015KT 10SM SCT085 02/02 A3006 RMK AO2
KD60 231255Z AUTO 29015KT 10SM CLR 03/02 A3005 RMK AO2
KD60 231235Z AUTO 30015KT 10SM CLR 03/02 A3004 RMK AO2
KD60 231215Z AUTO 31015G21KT 10SM FEW020 FEW075 FEW090 03/02 A3003 RMK AO2
KD60 231155Z AUTO 31016G25KT 10SM BKN020 BKN028 04/01 A3002 RMK AO2
KD60 231135Z AUTO 31018G24KT 10SM FEW019 OVC027 04/01 A3001 RMK AO2
KD60 231115Z AUTO 31019G24KT 10SM BKN025 OVC029 05/01 A3000 RMK AO2
KD60 231055Z AUTO 31021G26KT 10SM OVC024 05/01 A2998 RMK AO2
KD60 231035Z AUTO 31015KT 10SM OVC024 05/01 A2997 RMK AO2
KD60 231015Z AUTO 32017KT 10SM BKN024 OVC060 05/01 A2995 RMK AO2
KD60 230955Z AUTO 32013G21KT 10SM OVC026 05/01 A2994 RMK AO2
KD60 230935Z AUTO 32016G23KT 10SM BKN028 BKN032 OVC043 05/00 A2992 RMK AO2
KD60 230915Z AUTO 33011G20KT 10SM SCT032 OVC042 06/01 A2991 RMK AO2
KD60 230855Z AUTO 30015G21KT 10SM SCT039 BKN047 OVC050 06/01 A2989 RMK AO2
KD60 230835Z AUTO 31014KT 10SM BKN050 06/01 A2988 RMK AO2
KD60 230815Z AUTO 30016KT 10SM CLR 05/01 A2986 RMK AO2
KD60 230755Z AUTO 30010KT 10SM FEW050 05/00 A2985 RMK AO2
KD60 230735Z AUTO 29010G17KT 10SM BKN050 06/M00 A2984 RMK AO2
KD60 230715Z AUTO 29015G21KT 10SM CLR 07/M00 A2983 RMK AO2
KD60 230655Z AUTO 29014G20KT 10SM CLR 07/M00 A2982 RMK AO2
KD60 230635Z AUTO 29015G22KT 10SM CLR 08/M00 A2981 RMK AO2
KD60 230615Z AUTO 29016G23KT 10SM CLR 08/M00 A2979 RMK AO2
KD60 230555Z AUTO 30019KT 10SM CLR 08/M01 A2978 RMK AO2
KD60 230535Z AUTO 30019G29KT 10SM FEW110 08/M01 A2976 RMK AO2
KD60 230515Z AUTO 30021G27KT 10SM CLR 09/M01 A2975 RMK AO2
KD60 230455Z AUTO 29017G25KT 10SM CLR 09/M00 A2973 RMK AO2
KD60 230435Z AUTO 29018G24KT 10SM CLR 09/00 A2973 RMK AO2
KD60 230415Z AUTO 28011G17KT 10SM CLR 09/03 A2972 RMK AO2
KD60 230355Z AUTO 30014G23KT 10SM SCT100 10/02 A2971 RMK AO2
KD60 230335Z AUTO 29015G22KT 10SM BKN100 11/03 A2969 RMK AO2
KD60 230315Z AUTO 29018KT 10SM SCT100 SCT120 11/03 A2968 RMK AO2
KD60 230255Z AUTO 28017KT 10SM SCT110 10/04 A2967 RMK AO2
KD60 230235Z AUTO 28015G21KT 10SM BKN120 11/04 A2965 RMK AO2
KD60 230215Z AUTO 27016KT 10SM SCT070 SCT090 11/03 A2964 RMK AO2
KD60 230155Z AUTO 28015G20KT 10SM BKN070 BKN095 12/02 A2963 RMK AO2
KD60 230135Z AUTO 29015G25KT 10SM SCT100 13/02 A2961 RMK AO2
KD60 230115Z AUTO 28016KT 10SM FEW075 SCT100 12/03 A2961 RMK AO2
KD60 230055Z AUTO 27015G21KT 10SM SCT075 BKN085 13/04 A2960 RMK AO2
KD60 230035Z AUTO 26014KT 10SM BKN080 BKN085 13/04 A2959 RMK AO2
KD60 230015Z AUTO 25014KT 10SM BKN080 BKN090 13/04 A2959 RMK AO2
KD60 222355Z AUTO 27014KT 10SM BKN080 BKN090 13/03 A2958 RMK AO2
KD60 222335Z AUTO 27013G18KT 10SM CLR 13/04 A2956 RMK AO2
KD60 222315Z AUTO 26012G22KT 10SM SCT075 SCT090 14/04 A2956 RMK AO2
KD60 222255Z AUTO 26017G24KT 10SM BKN070 BKN090 15/04 A2955 RMK AO2
KD60 222235Z AUTO 24012KT 10SM BKN070 14/04 A2955 RMK AO2
KD60 222215Z AUTO 19009KT 10SM CLR 14/06 A2955 RMK AO2
KD60 222155Z AUTO 7.66666708KT 10SM CLR 14/07 A2957 RMK AO2
KD60 222135Z AUTO 22008KT 10SM CLR 13/07 A2958 RMK AO2
KD60 222115Z AUTO 22008KT 10SM SCT075 SCT090 SCT110 12/08 A2958 RMK AO2
KD60 222055Z AUTO 23009KT 10SM FEW043 BKN050 OVC110 12/09 A2959 RMK AO2
KD60 222035Z AUTO 25011G21KT 8SM BKN049 OVC055 11/09 A2960 RMK AO2
KD60 222015Z AUTO 22007KT 10SM -RA OVC050 10/05 A2960 RMK AO2
KD60 221955Z AUTO 22006G12KT 9SM -RA OVC050 10/05 A2960 RMK AO2
KD60 221935Z AUTO 23011G18KT 9SM OVC050 11/02 A2961 RMK AO2
KD60 221915Z AUTO 22014KT 10SM BKN050 OVC060 11/01 A2960 RMK AO2
KD60 221855Z AUTO 22016KT 10SM BKN050 OVC060 10/M00 A2961 RMK AO2
KD60 221835Z AUTO 16.96000017KT 10SM OVC049 10/M01 A2963 RMK AO2
KD60 221815Z AUTO 22014G22KT 10SM OVC050 09/M02 A2965 RMK AO2
KD60 221755Z AUTO 22022G27KT 10SM OVC050 09/M03 A2965 RMK AO2
KD60 221735Z AUTO 21019G24KT 10SM OVC050 08/M03 A2966 RMK AO2
KD60 221715Z AUTO 20012G18KT 10SM BKN050 OVC060 07/M04 A2966 RMK AO2
KD60 221655Z AUTO 21011G18KT 10SM BKN050 OVC060 06/M03 A2968 RMK AO2
KD60 221635Z AUTO 22016KT 10SM FEW055 BKN065 BKN090 05/M04 A2969 RMK AO2
KD60 221615Z AUTO 22016KT 10SM BKN085 05/M04 A2968 RMK AO2
KD60 221555Z AUTO 22016KT 10SM BKN090 05/M04 A2969 RMK AO2
KD60 221535Z AUTO 21017KT 10SM BKN100 05/M04 A2969 RMK AO2
KD60 221515Z AUTO 21012KT 10SM BKN100 04/M03 A2971 RMK AO2
KD60 221455Z AUTO 21014KT 10SM SCT100 04/M02 A2973 RMK AO2
KD60 221435Z AUTO 21012KT 10SM FEW100 03/M02 A2973 RMK AO2
KD60 221415Z AUTO 20006KT 10SM CLR 01/M02 A2974 RMK AO2
KD60 221355Z AUTO 20005KT 10SM CLR M00/M02 A2974 RMK AO2
KD60 221335Z AUTO 21008KT 10SM CLR M00/M02 A2974 RMK AO2
KD60 221315Z AUTO 22011KT 10SM CLR M01/M02 A2974 RMK AO2
KD60 221255Z AUTO 21011G16KT 10SM CLR M00/M02 A2975 RMK AO2
KD60 221235Z AUTO 21008KT 10SM CLR M01/M02 A2975 RMK AO2
KD60 221215Z AUTO 22007KT 10SM CLR M01/M02 A2976 RMK AO2
KD60 221155Z AUTO 23006KT 10SM CLR M01/M02 A2977 RMK AO2
KD60 221135Z AUTO 23007KT 10SM CLR M00/M02 A2976 RMK AO2
KD60 221115Z AUTO 24004KT 10SM CLR M00/M02 A2977 RMK AO2
KD60 221055Z AUTO 23009KT 10SM CLR M01/M03 A2978 RMK AO2
KD60 221035Z AUTO 23009KT 10SM CLR M02/M03 A2977 RMK AO2
KD60 221015Z AUTO 22006KT 10SM CLR M02/M03 A2977 RMK AO2
KD60 220955Z AUTO 21005KT 10SM CLR M02/M03 A2977 RMK AO2
KD60 220935Z AUTO 23006KT 10SM CLR 00/M03 A2978 RMK AO2
KD60 220915Z AUTO 28008KT 10SM CLR 00/M02 A2978 RMK AO2
KD60 220855Z AUTO 27006KT 10SM CLR M00/M02 A2978 RMK AO2
KD60 220835Z AUTO 27007KT 10SM CLR 00/M02 A2979 RMK AO2
KD60 220815Z AUTO 26006KT 10SM CLR 01/M02 A2980 RMK AO2
KD60 220755Z AUTO 25009KT 10SM CLR 01/M02 A2979 RMK AO2
KD60 220735Z AUTO 25009KT CLR 01/M02 A2979 RMK AO2
KD60 220715Z AUTO 27008KT 10SM CLR 00/M02 A2979 RMK AO2
KD60 220655Z AUTO 27008KT 10SM CLR 01/M02 A2978 RMK AO2
KD60 220635Z AUTO 27010KT 10SM CLR 01/M02 A2978 RMK AO2
KD60 220615Z AUTO 27010KT 10SM CLR 01/M02 A2978 RMK AO2
KD60 220555Z AUTO 27011KT 10SM CLR 01/M02 A2978 RMK AO2
KD60 220535Z AUTO 27010KT 10SM CLR 02/M01 A2978 RMK AO2
KD60 220515Z AUTO 28010KT 10SM CLR 02/M01 A2978 RMK AO2
KD60 220455Z AUTO 27009KT 10SM CLR 02/M01 A2978 RMK AO2
KD60 220435Z AUTO 27008KT 10SM CLR 02/M00 A2978 RMK AO2
KD60 220415Z AUTO 27010KT 10SM CLR 02/M00 A2977 RMK AO2
KD60 220355Z AUTO 27009KT 10SM CLR 01/M00 A2977 RMK AO2
KD60 220335Z AUTO 26009KT 10SM CLR 01/M00 A2977 RMK AO2